Time;durP1;ratioP1;P1;durP2;ratioP2;P2;SDS_P1;SDS_P2;PMS_P1;PMS_P2;Temp;Humidity;BMP_temperature;BMP_pressure;BME280_temperature;BME280_humidity;BME280_pressure;Samples;Min_cycle;Max_cycle;Signal;HPM_P1;HPM_P2
2023/12/20 15:29:25;;;;;;;;;;;5.40;99.90;;;;;;5106119;27;2043754;-96
2023/12/20 15:31:50;;;;;;;;;;;5.30;99.90;;;;;;5156905;27;20002;-95
2023/12/20 15:34:16;;;;;;;;;;;5.40;99.90;;;;;;5148738;27;19995;-96
2023/12/20 15:36:42;;;;;;;;;;;5.50;99.90;;;;;;5153753;27;20011;-96
2023/12/20 15:39:08;;;;;;;;;;;5.60;99.90;;;;;;5135449;27;19911;-96
2023/12/20 15:41:34;;;;;;;;;;;5.70;99.90;;;;;;5135358;27;19907;-96
2023/12/20 15:43:59;;;;;;;;;;;5.80;99.90;;;;;;5135105;27;19998;-95
2023/12/20 15:46:25;;;;;;;;;;;5.90;99.90;;;;;;5134927;27;19907;-95
2023/12/20 15:48:52;;;;;;;;;;;6.00;99.90;;;;;;5135242;27;19915;-95
2023/12/20 15:51:20;;;;;;;;;;;6.10;99.90;;;;;;5134746;27;19942;-95
2023/12/20 15:53:45;;;;;;;;;;;6.10;99.90;;;;;;5134902;27;19914;-94
2023/12/20 15:56:11;;;;;;;;;;;6.20;99.90;;;;;;5135140;27;19907;-95
2023/12/20 15:58:36;;;;;;;;;;;6.20;99.90;;;;;;5135041;27;19950;-95
2023/12/20 16:01:02;;;;;;;;;;;6.30;99.90;;;;;;5135545;27;19907;-96
2023/12/20 16:03:27;;;;;;;;;;;6.30;99.90;;;;;;5135148;27;20356;-96
2023/12/20 16:05:58;;;;;;;;;;;6.30;99.90;;;;;;5135034;27;20279;-95
2023/12/20 16:08:23;;;;;;;;;;;6.30;99.90;;;;;;5139173;27;19907;-96
2023/12/20 16:10:49;;;;;;;;;;;6.40;99.90;;;;;;5135257;27;19911;-94
2023/12/20 16:13:14;;;;;;;;;;;6.40;99.90;;;;;;5134421;27;19912;-94
2023/12/20 16:15:40;;;;;;;;;;;6.40;99.90;;;;;;5153101;27;19908;-94
2023/12/20 16:18:09;;;;;;;;;;;6.40;99.90;;;;;;5136069;27;19915;-94
2023/12/20 16:20:34;;;;;;;;;;;6.40;99.90;;;;;;5135750;27;19908;-94
2023/12/20 16:23:00;;;;;;;;;;;6.40;99.90;;;;;;5136210;27;19916;-93
2023/12/20 16:25:25;;;;;;;;;;;6.50;99.90;;;;;;5154850;27;19959;-95
2023/12/20 16:27:51;;;;;;;;;;;6.40;99.90;;;;;;5151426;27;20359;-95
2023/12/20 16:30:16;;;;;;;;;;;6.40;99.90;;;;;;5151724;27;19919;-94
2023/12/20 16:32:42;;;;;;;;;;;6.40;99.90;;;;;;5145581;27;19912;-94
2023/12/20 16:35:07;;;;;;;;;;;6.40;99.90;;;;;;5151385;27;19962;-93
2023/12/20 16:37:37;;;;;;;;;;;6.40;99.90;;;;;;5151547;27;20006;-94
2023/12/20 16:40:06;;;;;;;;;;;6.40;99.90;;;;;;5122675;27;20325;-92
2023/12/20 16:42:31;;;;;;;;;;;6.30;99.90;;;;;;5125950;27;20014;-95
2023/12/20 16:44:57;;;;;;;;;;;6.30;99.90;;;;;;5125945;27;19958;-93
2023/12/20 16:47:22;;;;;;;;;;;6.30;99.90;;;;;;5129680;27;19934;-92
2023/12/20 16:49:48;;;;;;;;;;;6.20;99.90;;;;;;5116539;27;19915;-92
2023/12/20 16:52:13;;;;;;;;;;;6.20;99.90;;;;;;5127072;27;19911;-93
2023/12/20 16:54:39;;;;;;;;;;;6.20;99.90;;;;;;5137109;27;19987;-93
2023/12/20 16:57:04;;;;;;;;;;;6.10;99.90;;;;;;5137019;27;19907;-93
2023/12/20 16:59:30;;;;;;;;;;;6.10;99.90;;;;;;5137250;27;19907;-93
2023/12/20 17:01:55;;;;;;;;;;;6.10;99.90;;;;;;5130232;27;19917;-93
2023/12/20 17:04:23;;;;;;;;;;;6.10;99.90;;;;;;5137123;27;19911;-93
2023/12/20 17:06:49;;;;;;;;;;;6.00;99.90;;;;;;5136232;27;20364;-93
2023/12/20 17:09:15;;;;;;;;;;;6.00;99.90;;;;;;5127437;27;19912;-93
2023/12/20 17:11:41;;;;;;;;;;;6.00;99.90;;;;;;5115907;28;19998;-93
2023/12/20 17:14:08;;;;;;;;;;;6.00;99.90;;;;;;5124356;27;19998;-93
2023/12/20 17:16:34;;;;;;;;;;;6.00;99.90;;;;;;5122341;27;20264;-92
2023/12/20 17:19:01;;;;;;;;;;;6.00;99.90;;;;;;5136271;27;19919;-92
2023/12/20 17:21:26;;;;;;;;;;;5.90;99.90;;;;;;5136386;27;19907;-93
2023/12/20 17:23:52;;;;;;;;;;;5.90;99.90;;;;;;5134312;27;19919;-94
2023/12/20 17:26:17;;;;;;;;;;;5.90;99.90;;;;;;5129881;27;19915;-93
2023/12/20 17:28:43;;;;;;;;;;;5.90;99.90;;;;;;5115215;28;19926;-93
2023/12/20 17:31:08;;;;;;;;;;;5.90;99.90;;;;;;5129707;27;19915;-94
2023/12/20 17:33:34;;;;;;;;;;;5.90;99.90;;;;;;5137287;27;19915;-93
2023/12/20 17:35:59;;;;;;;;;;;5.90;99.90;;;;;;5136666;27;19907;-92
2023/12/20 17:38:25;;;;;;;;;;;5.90;99.90;;;;;;5136319;27;19918;-93
2023/12/20 17:40:51;;;;;;;;;;;5.80;99.90;;;;;;5136539;27;19911;-94
2023/12/20 17:43:16;;;;;;;;;;;5.80;99.90;;;;;;5123391;27;19908;-92
2023/12/20 17:45:42;;;;;;;;;;;5.80;99.90;;;;;;5115770;28;19914;-91
2023/12/20 17:48:07;;;;;;;;;;;5.80;99.90;;;;;;5116234;28;19922;-92
2023/12/20 17:50:33;;;;;;;;;;;5.80;99.90;;;;;;5116598;28;19909;-92
2023/12/20 17:52:59;;;;;;;;;;;5.90;99.90;;;;;;5117276;28;19915;-92
2023/12/20 17:55:33;;;;;;;;;;;5.90;99.90;;;;;;5117788;28;20010;-92
2023/12/20 17:57:59;;;;;;;;;;;5.90;99.90;;;;;;5134365;27;19919;-93
2023/12/20 18:00:27;;;;;;;;;;;5.90;99.90;;;;;;5116498;28;19908;-92
2023/12/20 18:02:54;;;;;;;;;;;5.90;99.90;;;;;;5115731;28;19915;-93
2023/12/20 18:05:20;;;;;;;;;;;5.80;99.90;;;;;;5115848;28;19907;-93
2023/12/20 18:07:46;;;;;;;;;;;5.80;99.90;;;;;;5116104;28;20264;-93
2023/12/20 18:10:12;;;;;;;;;;;5.80;99.90;;;;;;5116298;28;19911;-93
2023/12/20 18:12:40;;;;;;;;;;;5.80;99.90;;;;;;5116619;28;20253;-94
2023/12/20 18:15:05;;;;;;;;;;;5.80;99.90;;;;;;5119898;28;19908;-92
2023/12/20 18:17:31;;;;;;;;;;;5.90;99.90;;;;;;5119094;28;20314;-93
2023/12/20 18:19:59;;;;;;;;;;;6.00;99.90;;;;;;5125870;27;19908;-92
2023/12/20 18:22:25;;;;;;;;;;;6.00;99.90;;;;;;5120344;28;20275;-92
2023/12/20 18:24:50;;;;;;;;;;;6.10;99.90;;;;;;5114316;28;19915;-92
2023/12/20 18:27:16;;;;;;;;;;;6.10;99.90;;;;;;5125442;27;19919;-93
2023/12/20 18:29:41;;;;;;;;;;;6.20;99.90;;;;;;5122010;27;19927;-92
2023/12/20 18:32:07;;;;;;;;;;;6.20;99.90;;;;;;5117918;27;19964;-91
2023/12/20 18:34:33;;;;;;;;;;;6.30;99.90;;;;;;5122826;27;19991;-91
2023/12/20 18:36:59;;;;;;;;;;;6.30;99.90;;;;;;5138087;27;19911;-92
2023/12/20 18:39:25;;;;;;;;;;;6.30;99.90;;;;;;5137902;27;19919;-91
2023/12/20 18:41:50;;;;;;;;;;;6.40;99.90;;;;;;5138807;27;19907;-91
2023/12/20 18:44:16;;;;;;;;;;;6.40;99.90;;;;;;5138089;27;19914;-91
2023/12/20 18:46:43;;;;;;;;;;;6.40;99.90;;;;;;5132923;27;19907;-92
2023/12/20 18:49:09;;;;;;;;;;;6.40;99.90;;;;;;5129053;27;20271;-93
2023/12/20 18:51:34;;;;;;;;;;;6.40;99.90;;;;;;5120408;27;19908;-93
2023/12/20 18:54:00;;;;;;;;;;;6.40;99.90;;;;;;5120698;27;19911;-91
2023/12/20 18:56:25;;;;;;;;;;;6.40;99.90;;;;;;5123243;27;19911;-92
2023/12/20 18:58:51;;;;;;;;;;;6.40;99.90;;;;;;5118213;27;19912;-91
2023/12/20 19:01:16;;;;;;;;;;;6.40;99.90;;;;;;5117813;27;19971;-91
2023/12/20 19:03:42;;;;;;;;;;;6.50;99.90;;;;;;5117100;27;19908;-93
2023/12/20 19:06:07;;;;;;;;;;;6.40;99.90;;;;;;5117829;27;20053;-93
2023/12/20 19:08:33;;;;;;;;;;;6.50;99.90;;;;;;5117408;27;20236;-93
2023/12/20 19:10:58;;;;;;;;;;;6.50;99.90;;;;;;5119710;27;20039;-93
2023/12/20 19:13:30;;;;;;;;;;;6.50;99.90;;;;;;5136521;27;19911;-90
2023/12/20 19:16:02;;;;;;;;;;;6.50;99.90;;;;;;5153566;27;19911;-93
2023/12/20 19:18:28;;;;;;;;;;;6.50;99.90;;;;;;5121320;27;19912;-92
2023/12/20 19:20:54;;;;;;;;;;;6.50;99.90;;;;;;5129435;27;20092;-91
2023/12/20 19:23:19;;;;;;;;;;;6.50;99.90;;;;;;5138120;27;19907;-92
2023/12/20 19:25:45;;;;;;;;;;;6.50;99.90;;;;;;5125156;27;19911;-93
2023/12/20 19:28:10;;;;;;;;;;;6.50;99.90;;;;;;5119724;28;19985;-93
2023/12/20 19:30:39;;;;;;;;;;;6.50;99.90;;;;;;5117759;27;20261;-93
2023/12/20 19:33:04;;;;;;;;;;;6.50;99.90;;;;;;5119402;28;19911;-93
2023/12/20 19:35:30;;;;;;;;;;;6.50;99.90;;;;;;5152093;27;19918;-91
2023/12/20 19:37:56;;;;;;;;;;;6.50;99.90;;;;;;5126929;28;20364;-92
2023/12/20 19:40:21;;;;;;;;;;;6.50;99.90;;;;;;5117202;28;20356;-93
2023/12/20 19:42:47;;;;;;;;;;;6.40;99.90;;;;;;5118243;27;19920;-91
2023/12/20 19:45:14;;;;;;;;;;;6.40;99.90;;;;;;5122464;28;19918;-92
2023/12/20 19:47:47;;;;;;;;;;;6.40;99.90;;;;;;5117196;28;19929;-91
2023/12/20 19:50:13;;;;;;;;;;;6.30;99.90;;;;;;5120640;27;19948;-92
2023/12/20 19:52:38;;;;;;;;;;;6.30;99.90;;;;;;5155951;27;20002;-93
2023/12/20 19:55:04;;;;;;;;;;;6.20;99.90;;;;;;5129260;27;20387;-91
2023/12/20 19:57:30;;;;;;;;;;;6.20;99.90;;;;;;5116596;28;19912;-92
2023/12/20 19:59:56;;;;;;;;;;;6.20;99.90;;;;;;5116576;28;19911;-92
2023/12/20 20:02:22;;;;;;;;;;;6.20;99.90;;;;;;5138476;27;19919;-92
2023/12/20 20:04:47;;;;;;;;;;;6.20;99.90;;;;;;5116755;27;19911;-91
2023/12/20 20:17:21;;;;;;;;;;;6.00;99.90;;;;;;5125226;27;20307;-92
2023/12/20 20:19:47;;;;;;;;;;;5.90;99.90;;;;;;5126588;27;20007;-94
2023/12/20 20:22:12;;;;;;;;;;;5.90;99.90;;;;;;5099458;28;19919;-94
2023/12/20 20:24:38;;;;;;;;;;;6.00;99.90;;;;;;5103931;28;20429;-94
2023/12/20 20:27:03;;;;;;;;;;;6.00;99.90;;;;;;5102550;28;19908;-93
2023/12/20 20:29:29;;;;;;;;;;;6.00;99.90;;;;;;5094653;28;19951;-93
2023/12/20 20:31:54;;;;;;;;;;;6.00;99.90;;;;;;5100767;28;19912;-93
2023/12/20 20:34:20;;;;;;;;;;;6.10;99.90;;;;;;5071249;28;19962;-94
2023/12/20 20:36:46;;;;;;;;;;;6.10;99.90;;;;;;5104627;28;19920;-94
2023/12/20 20:39:12;;;;;;;;;;;6.10;99.90;;;;;;5119963;27;19923;-94
2023/12/20 20:41:37;;;;;;;;;;;6.20;99.90;;;;;;5125229;28;20423;-94
